createdAt,value
2022-12-11T00:04:27.848Z,7.97
2022-12-11T00:09:31.183Z,10.97
2022-12-11T00:14:36.881Z,11.83
2022-12-11T00:19:41.016Z,12.93
2022-12-11T00:24:44.598Z,12.23
2022-12-11T00:29:49.475Z,12.03
2022-12-11T00:34:53.149Z,12.83
2022-12-11T00:39:56.424Z,12.07
2022-12-11T00:45:03.208Z,14.90
2022-12-11T00:50:07.404Z,12.93
2022-12-11T00:55:11.807Z,12.97
2022-12-11T01:00:17.503Z,13.60
2022-12-11T01:05:21.376Z,11.73
2022-12-11T01:10:27.444Z,13.50
2022-12-11T01:15:33.652Z,12.93
2022-12-11T01:20:39.635Z,13.90
2022-12-11T01:25:44.123Z,14.73
2022-12-11T01:30:49.350Z,12.20
2022-12-11T01:35:55.708Z,14.57
2022-12-11T01:41:04.508Z,13.43
2022-12-11T01:46:09.795Z,12.43
2022-12-11T01:51:13.335Z,13.87
2022-12-11T01:56:17.158Z,11.73
2022-12-11T02:01:26.047Z,13.33
2022-12-11T02:06:31.257Z,12.20
2022-12-11T02:11:40.337Z,12.07
2022-12-11T02:16:47.772Z,12.33
2022-12-11T02:21:52.179Z,10.63
2022-12-11T02:27:12.607Z,8.03
2022-12-11T02:32:18.815Z,10.23
2022-12-11T02:37:24.868Z,9.87
2022-12-11T02:42:31.450Z,9.70
2022-12-11T02:47:37.039Z,9.47
2022-12-11T02:52:41.829Z,9.80
2022-12-11T02:57:46.866Z,11.03
2022-12-11T03:02:52.058Z,10.67
2022-12-11T03:07:55.781Z,9.80
2022-12-11T03:13:00.087Z,11.37
2022-12-11T03:18:10.978Z,8.77
2022-12-11T03:23:21.327Z,9.87
2022-12-11T03:28:28.669Z,11.83
2022-12-11T03:33:35.776Z,11.57
2022-12-11T03:38:42.927Z,10.67
2022-12-11T03:43:46.740Z,9.07
2022-12-11T03:48:52.876Z,8.47
2022-12-11T03:53:56.841Z,8.63
2022-12-11T03:59:00.716Z,7.53
2022-12-11T04:04:05.927Z,8.43
2022-12-11T04:09:09.770Z,7.10
2022-12-11T04:14:32.218Z,8.67
2022-12-11T04:19:54.885Z,9.23
2022-12-11T04:24:58.424Z,10.73
2022-12-11T04:30:01.831Z,11.10
2022-12-11T04:35:08.099Z,9.77
2022-12-11T04:40:14.252Z,10.37
2022-12-11T04:45:17.980Z,9.87
2022-12-11T04:50:22.715Z,9.97
2022-12-11T04:55:26.046Z,9.07
2022-12-11T05:00:29.306Z,10.17
2022-12-11T05:05:34.204Z,8.93
2022-12-11T05:10:37.765Z,8.43
2022-12-11T05:15:41.713Z,8.27
2022-12-11T05:20:46.539Z,8.10
2022-12-11T05:25:53.148Z,8.23
2022-12-11T05:30:57.260Z,7.33
2022-12-11T05:36:01.905Z,7.73
2022-12-11T05:41:06.554Z,7.97
2022-12-11T05:46:11.007Z,8.90
2022-12-11T05:51:16.651Z,8.23
2022-12-11T05:56:21.892Z,8.43
2022-12-11T06:01:25.780Z,8.47
2022-12-11T06:06:30.946Z,7.77
2022-12-11T06:11:35.239Z,8.77
2022-12-11T06:16:38.921Z,6.33
2022-12-11T06:21:44.204Z,7.50
2022-12-11T06:26:47.867Z,7.77
2022-12-11T06:31:51.721Z,8.00
2022-12-11T06:36:56.619Z,7.63
2022-12-11T06:42:00.267Z,7.57
2022-12-11T06:47:04.668Z,8.07
2022-12-11T06:52:13.669Z,8.47
2022-12-11T06:57:20.386Z,8.77
2022-12-11T07:02:23.906Z,8.63
2022-12-11T07:07:28.613Z,8.23
2022-12-11T07:12:32.117Z,8.23
2022-12-11T07:17:36.895Z,9.07
2022-12-11T07:22:46.615Z,8.00
2022-12-11T07:27:50.158Z,9.10
2022-12-11T07:32:53.702Z,7.17
2022-12-11T07:38:00.021Z,7.73
2022-12-11T07:43:03.632Z,9.37
2022-12-11T07:48:07.278Z,8.83
2022-12-11T07:53:12.354Z,8.67
2022-12-11T07:58:15.753Z,9.57
2022-12-11T08:03:19.221Z,9.53
2022-12-11T08:08:24.135Z,9.80
2022-12-11T08:13:28.012Z,8.90
2022-12-11T08:18:32.166Z,9.07
2022-12-11T08:23:37.321Z,10.83
2022-12-11T08:28:40.813Z,9.33
2022-12-11T08:33:44.476Z,11.30
2022-12-11T08:38:50.431Z,10.40
2022-12-11T08:43:55.401Z,10.13
2022-12-11T08:48:59.143Z,10.50
2022-12-11T08:54:04.046Z,9.53
2022-12-11T08:59:07.513Z,10.20
2022-12-11T09:04:10.980Z,14.07
2022-12-11T09:09:16.020Z,10.10
2022-12-11T09:14:19.457Z,10.97
2022-12-11T09:19:24.763Z,11.17
2022-12-11T09:24:32.811Z,10.50
2022-12-11T09:29:36.427Z,9.60
2022-12-11T09:34:39.745Z,10.53
2022-12-11T09:39:44.621Z,10.53
2022-12-11T09:44:49.633Z,9.00
2022-12-11T09:49:56.320Z,7.83
2022-12-11T09:55:03.862Z,10.27
2022-12-11T10:00:13.113Z,8.73
2022-12-11T10:05:21.505Z,8.00
2022-12-11T10:10:33.226Z,6.37
2022-12-11T10:15:38.589Z,7.00
2022-12-11T10:20:42.919Z,10.47
2022-12-11T10:25:51.279Z,5.57
2022-12-11T10:30:59.987Z,6.07
2022-12-11T10:36:03.434Z,6.60
2022-12-11T10:41:12.788Z,6.80
2022-12-11T10:46:17.193Z,7.87
2022-12-11T10:51:22.211Z,6.93
2022-12-11T10:56:31.771Z,7.33
2022-12-11T11:01:35.384Z,8.90
2022-12-11T11:06:38.739Z,10.33
2022-12-11T11:11:51.300Z,9.10
2022-12-11T11:16:57.483Z,9.23
2022-12-11T11:22:02.906Z,9.33
2022-12-11T11:27:15.028Z,8.87
2022-12-11T11:32:21.027Z,9.57
2022-12-11T11:37:26.176Z,9.53
2022-12-11T11:42:37.497Z,9.37
2022-12-11T11:47:44.472Z,9.20
2022-12-11T11:52:50.877Z,7.70
2022-12-11T11:57:58.556Z,8.30
2022-12-11T12:03:04.762Z,9.63
2022-12-11T12:08:13.167Z,16.53
2022-12-11T12:13:48.159Z,9.20
2022-12-11T12:18:53.764Z,7.87
2022-12-11T12:24:04.140Z,10.10
2022-12-11T12:29:17.614Z,12.13
2022-12-11T12:34:28.710Z,9.97
2022-12-11T12:39:35.707Z,8.40
2022-12-11T12:44:43.713Z,9.87
2022-12-11T12:49:48.080Z,10.70
2022-12-11T12:55:24.714Z,9.47
2022-12-11T13:00:31.207Z,10.60
2022-12-11T13:05:35.475Z,7.93
2022-12-11T13:10:40.504Z,8.60
2022-12-11T13:15:45.763Z,10.80
2022-12-11T13:20:51.368Z,11.37
2022-12-11T13:25:55.296Z,10.67
2022-12-11T13:31:02.146Z,10.20
2022-12-11T13:36:18.925Z,10.07
2022-12-11T13:41:25.436Z,10.60
2022-12-11T13:46:31.547Z,11.23
2022-12-11T13:51:37.143Z,10.77
2022-12-11T13:56:40.484Z,11.30
2022-12-11T14:01:45.214Z,11.53
2022-12-11T14:06:48.814Z,12.00
2022-12-11T14:11:56.974Z,10.40
2022-12-11T14:17:02.132Z,11.63
2022-12-11T14:22:07.983Z,10.90
2022-12-11T14:27:17.134Z,11.43
2022-12-11T14:32:26.734Z,13.23
2022-12-11T14:37:30.240Z,14.03
2022-12-11T14:42:35.512Z,12.97
2022-12-11T14:47:43.609Z,12.80
2022-12-11T14:52:49.081Z,13.80
2022-12-11T14:57:55.308Z,13.60
2022-12-11T15:03:01.289Z,14.70
2022-12-11T15:08:24.524Z,13.00
2022-12-11T15:13:28.128Z,13.77
2022-12-11T15:18:34.499Z,12.87
2022-12-11T15:23:48.453Z,12.20
2022-12-11T15:29:00.615Z,11.70
2022-12-11T15:34:05.562Z,12.70
2022-12-11T15:39:09.792Z,11.40
2022-12-11T15:44:18.796Z,12.80
2022-12-11T15:49:24.657Z,11.70
2022-12-11T15:54:28.274Z,12.57
2022-12-11T15:59:33.065Z,12.83
2022-12-11T16:04:37.837Z,12.73
2022-12-11T16:09:41.671Z,13.67
2022-12-11T16:14:46.416Z,12.20
2022-12-11T16:19:51.654Z,12.00
2022-12-11T16:24:55.671Z,11.63
2022-12-11T16:29:59.337Z,11.30
2022-12-11T16:35:05.233Z,11.80
2022-12-11T16:40:09.502Z,11.90
2022-12-11T16:45:14.757Z,10.50
2022-12-11T16:50:19.870Z,9.30
2022-12-11T16:55:23.696Z,9.20
2022-12-11T17:00:30.448Z,8.47
2022-12-11T17:05:35.334Z,9.30
2022-12-11T17:10:40.978Z,10.10
2022-12-11T17:15:44.472Z,10.40
2022-12-11T17:20:50.297Z,10.10
2022-12-11T17:25:53.863Z,10.37
2022-12-11T17:30:59.061Z,11.53
2022-12-11T17:36:04.967Z,9.43
2022-12-11T17:41:09.024Z,10.77
2022-12-11T17:46:13.401Z,9.87
2022-12-11T17:51:22.087Z,10.87
2022-12-11T17:56:25.965Z,10.23
2022-12-11T18:01:29.403Z,10.70
2022-12-11T18:06:34.899Z,10.53
2022-12-11T18:11:38.721Z,16.97
2022-12-11T18:16:42.274Z,13.33
2022-12-11T18:21:47.415Z,13.30
2022-12-11T18:26:50.682Z,12.10
2022-12-11T18:31:54.578Z,10.00
2022-12-11T18:36:59.984Z,13.53
2022-12-11T18:42:31.642Z,12.07
2022-12-11T18:47:28.338Z,11.37
2022-12-11T18:52:33.890Z,9.70
2022-12-11T18:57:39.513Z,11.13
2022-12-11T19:02:43.289Z,11.17
2022-12-11T19:07:53.061Z,11.33
2022-12-11T19:12:57.280Z,13.87
2022-12-11T19:18:01.477Z,11.73
2022-12-11T19:23:07.779Z,9.43
2022-12-11T19:28:12.690Z,11.27
2022-12-11T19:33:16.416Z,11.43
2022-12-11T19:38:22.238Z,17.80
2022-12-11T19:43:25.603Z,11.33
2022-12-11T19:48:29.390Z,9.60
2022-12-11T19:53:34.665Z,12.23
2022-12-11T19:58:38.469Z,11.00
2022-12-11T20:04:30.719Z,10.70
2022-12-11T20:09:43.291Z,11.00
2022-12-11T20:14:49.939Z,10.13
2022-12-11T20:19:55.967Z,9.83
2022-12-11T20:25:14.318Z,13.60
2022-12-11T20:30:25.992Z,10.30
2022-12-11T20:35:36.321Z,9.50
2022-12-11T20:40:43.300Z,11.67
2022-12-11T20:45:51.539Z,10.60
2022-12-11T20:51:01.036Z,9.60
2022-12-11T20:56:18.448Z,10.57
2022-12-11T21:01:32.511Z,11.33
2022-12-11T21:06:44.124Z,10.90
2022-12-11T21:11:51.900Z,10.67
2022-12-11T21:17:03.142Z,9.97
2022-12-11T21:22:08.321Z,10.37
2022-12-11T21:27:15.286Z,9.77
2022-12-11T21:32:24.320Z,11.40
2022-12-11T21:37:30.949Z,10.77
2022-12-11T21:42:49.179Z,10.87
2022-12-11T21:47:56.099Z,15.27
2022-12-11T21:53:05.601Z,10.87
2022-12-11T21:58:13.068Z,6.87
2022-12-11T22:03:19.702Z,7.57
2022-12-11T22:08:30.810Z,7.17
2022-12-11T22:13:37.963Z,7.40
2022-12-11T22:18:47.318Z,7.17
2022-12-11T22:23:51.715Z,9.53
2022-12-11T22:28:58.265Z,13.43
2022-12-11T22:34:02.916Z,9.60
2022-12-11T22:39:11.323Z,10.10
2022-12-11T22:44:21.425Z,9.90
2022-12-11T22:49:24.993Z,8.90
2022-12-11T22:54:28.613Z,7.83
2022-12-11T22:59:34.279Z,8.00
2022-12-11T23:04:38.145Z,7.93
2022-12-11T23:09:43.025Z,7.70
2022-12-11T23:14:47.961Z,6.57
2022-12-11T23:19:52.364Z,7.20
2022-12-11T23:24:55.927Z,5.83
2022-12-11T23:30:01.501Z,6.70
2022-12-11T23:35:05.524Z,6.87
2022-12-11T23:40:10.158Z,6.83
2022-12-11T23:45:15.122Z,6.33
2022-12-11T23:50:21.567Z,7.27
2022-12-11T23:55:28.661Z,7.33
